Time;durP1;ratioP1;P1;durP2;ratioP2;P2;SDS_P1;SDS_P2;PMS_P1;PMS_P2;Temp;Humidity;BMP_temperature;BMP_pressure;BME280_temperature;BME280_humidity;BME280_pressure;Samples;Min_cycle;Max_cycle;Signal;HPM_P1;HPM_P2
2023/06/24 00:01:05;;;;;;;3.67;3.03;;;21.30;99.90;;;;;;4208933;28;20055;-60
2023/06/24 00:03:07;;;;;;;3.78;2.80;;;21.30;99.90;;;;;;4211031;28;20486;-58
2023/06/24 00:05:08;;;;;;;4.10;3.22;;;21.30;99.90;;;;;;4206697;28;20037;-59
2023/06/24 00:07:08;;;;;;;3.03;2.72;;;21.30;99.90;;;;;;4206904;28;20032;-59
2023/06/24 00:09:09;;;;;;;3.55;2.67;;;21.20;99.90;;;;;;4211504;28;20028;-59
2023/06/24 00:11:10;;;;;;;3.22;2.90;;;21.20;99.90;;;;;;4206598;28;20036;-59
2023/06/24 00:13:10;;;;;;;3.63;3.05;;;21.20;99.90;;;;;;4196387;28;20059;-59
2023/06/24 00:15:11;;;;;;;2.97;2.63;;;21.20;99.90;;;;;;4200891;28;20032;-60
2023/06/24 00:17:12;;;;;;;5.30;3.05;;;21.20;99.90;;;;;;4192992;28;20025;-59
2023/06/24 00:19:13;;;;;;;3.60;3.10;;;21.20;99.90;;;;;;4211311;28;20074;-59
2023/06/24 00:21:16;;;;;;;4.35;3.10;;;21.20;99.90;;;;;;4202155;28;20372;-59
2023/06/24 00:23:25;;;;;;;3.70;2.95;;;21.30;99.90;;;;;;4211138;28;20036;-59
2023/06/24 00:25:26;;;;;;;3.33;2.97;;;21.20;99.90;;;;;;4208135;28;20043;-59
2023/06/24 00:27:26;;;;;;;3.38;2.78;;;21.20;99.90;;;;;;4209917;28;20024;-59
2023/06/24 00:29:27;;;;;;;4.85;3.03;;;21.20;99.90;;;;;;4206363;28;20043;-58
2023/06/24 00:31:28;;;;;;;2.67;2.45;;;21.20;99.90;;;;;;4204563;28;20495;-59
2023/06/24 00:33:28;;;;;;;3.42;2.90;;;21.20;99.90;;;;;;4210655;28;20043;-59
2023/06/24 00:35:29;;;;;;;2.65;2.40;;;21.20;99.90;;;;;;4208250;28;20036;-58
2023/06/24 00:37:29;;;;;;;3.45;2.80;;;21.20;99.90;;;;;;4194766;28;20157;-59
2023/06/24 00:39:30;;;;;;;4.55;2.60;;;21.10;99.90;;;;;;4206224;28;21203;-58
2023/06/24 00:41:35;;;;;;;4.25;2.97;;;21.10;99.90;;;;;;4194010;28;20032;-59
2023/06/24 00:43:37;;;;;;;2.75;2.40;;;21.00;99.90;;;;;;4196355;28;20040;-59
2023/06/24 00:45:39;;;;;;;5.32;3.05;;;20.90;99.90;;;;;;4199951;28;20072;-59
2023/06/24 00:47:40;;;;;;;3.33;3.00;;;20.90;99.90;;;;;;4205084;28;20040;-59
2023/06/24 00:49:45;;;;;;;4.50;2.90;;;20.90;99.90;;;;;;4189469;28;20037;-59
2023/06/24 00:51:50;;;;;;;3.85;2.83;;;20.90;99.90;;;;;;4184093;28;20437;-59
2023/06/24 00:53:50;;;;;;;3.30;2.80;;;20.80;99.90;;;;;;4193229;28;20316;-59
2023/06/24 00:55:54;;;;;;;4.35;3.00;;;20.80;99.90;;;;;;4193432;28;20035;-59
2023/06/24 00:57:55;;;;;;;4.55;3.20;;;20.90;99.90;;;;;;4194256;28;20036;-59
2023/06/24 00:59:57;;;;;;;3.65;3.25;;;20.90;99.90;;;;;;4190461;28;20052;-59
2023/06/24 01:01:57;;;;;;;4.35;2.95;;;20.90;99.90;;;;;;4190686;28;20372;-59
2023/06/24 01:03:58;;;;;;;3.33;2.70;;;20.90;99.90;;;;;;4187630;28;20035;-59
2023/06/24 01:05:59;;;;;;;3.05;2.75;;;20.90;99.90;;;;;;4185474;28;20064;-59
2023/06/24 01:08:01;;;;;;;4.03;3.13;;;20.90;99.90;;;;;;4181010;28;20059;-59
2023/06/24 01:10:05;;;;;;;3.20;2.78;;;20.80;99.90;;;;;;4190397;28;20646;-61
2023/06/24 01:12:07;;;;;;;4.55;3.25;;;20.80;99.90;;;;;;4158883;28;20060;-59
2023/06/24 01:14:08;;;;;;;4.45;2.83;;;20.80;99.90;;;;;;4189445;28;20487;-59
2023/06/24 01:16:18;;;;;;;5.85;3.05;;;20.80;99.90;;;;;;4185838;28;20410;-58
2023/06/24 01:18:43;;;;;;;4.00;2.88;;;20.80;99.90;;;;;;4190393;28;20041;-58
2023/06/24 01:20:52;;;;;;;4.88;2.95;;;20.80;99.90;;;;;;4190010;28;20040;-59
2023/06/24 01:23:11;;;;;;;3.55;3.08;;;20.80;99.90;;;;;;4188376;28;20027;-59
2023/06/24 01:25:52;;;;;;;4.20;2.80;;;20.80;99.90;;;;;;4178057;28;20048;-59
2023/06/24 01:28:08;;;;;;;4.28;2.70;;;20.70;99.90;;;;;;4164735;28;20025;-59
2023/06/24 01:30:17;;;;;;;4.65;2.78;;;20.60;99.90;;;;;;4161748;28;20021;-58
2023/06/24 01:32:34;;;;;;;3.47;2.88;;;20.60;99.90;;;;;;4188192;28;20077;-58
2023/06/24 01:34:42;;;;;;;5.60;3.10;;;20.60;99.90;;;;;;4191563;28;20111;-61
2023/06/24 01:36:49;;;;;;;5.10;2.92;;;20.50;99.90;;;;;;4176644;28;20040;-59
2023/06/24 01:38:58;;;;;;;5.32;3.38;;;20.50;99.90;;;;;;4198176;28;20048;-60
2023/06/24 01:41:02;;;;;;;3.95;2.88;;;20.50;99.90;;;;;;4199103;28;20029;-59
2023/06/24 01:43:04;;;;;;;4.65;3.58;;;20.40;99.90;;;;;;4174468;28;20124;-59
2023/06/24 01:45:12;;;;;;;4.45;3.45;;;20.40;99.90;;;;;;4187565;28;20050;-59
2023/06/24 01:47:18;;;;;;;4.90;3.10;;;20.40;99.90;;;;;;4190918;28;20041;-59
2023/06/24 01:49:21;;;;;;;5.07;3.35;;;20.40;99.90;;;;;;4192863;28;20028;-58
2023/06/24 01:51:23;;;;;;;5.60;3.17;;;20.50;99.90;;;;;;4186371;28;20029;-59
2023/06/24 01:53:26;;;;;;;;;;;20.50;99.90;;;;;;4184864;28;20040;-59
2023/06/24 01:55:28;;;;;;;3.15;2.40;;;20.50;99.90;;;;;;4173646;28;19995;-58
2023/06/24 01:57:32;;;;;;;3.50;2.75;;;20.60;99.90;;;;;;4179938;28;20484;-59
2023/06/24 01:59:34;;;;;;;4.18;3.05;;;20.50;99.90;;;;;;4185043;28;20043;-58
2023/06/24 02:01:38;;;;;;;3.78;3.25;;;20.50;99.90;;;;;;4186087;28;20544;-59
2023/06/24 02:03:41;;;;;;;3.08;2.78;;;20.50;99.90;;;;;;4185860;28;20044;-59
2023/06/24 02:05:43;;;;;;;5.82;2.75;;;20.50;99.90;;;;;;4189340;28;20033;-58
2023/06/24 02:07:46;;;;;;;4.53;3.40;;;20.50;99.90;;;;;;4184521;28;20033;-59
2023/06/24 02:09:47;;;;;;;6.68;3.20;;;20.50;99.90;;;;;;4178867;28;20029;-59
2023/06/24 02:11:49;;;;;;;4.43;3.20;;;20.50;99.90;;;;;;4181370;28;20033;-59
2023/06/24 02:13:53;;;;;;;7.68;3.13;;;20.50;99.90;;;;;;4185383;28;20033;-59
2023/06/24 02:15:55;;;;;;;5.07;2.83;;;20.50;99.90;;;;;;4205465;28;20036;-59
2023/06/24 02:17:57;;;;;;;5.90;3.55;;;20.50;99.90;;;;;;4205412;28;20043;-58
2023/06/24 02:19:59;;;;;;;3.72;3.35;;;20.50;99.90;;;;;;4205102;28;20506;-59
2023/06/24 02:22:01;;;;;;;4.88;3.10;;;20.50;99.90;;;;;;4209403;28;20043;-59
2023/06/24 02:24:03;;;;;;;3.58;3.15;;;20.50;99.90;;;;;;4202199;28;20033;-59
2023/06/24 02:26:05;;;;;;;3.40;3.00;;;20.50;99.90;;;;;;4203442;28;20127;-58
2023/06/24 02:28:07;;;;;;;4.07;3.00;;;20.50;99.90;;;;;;4208110;28;20769;-59
2023/06/24 02:30:09;;;;;;;3.85;3.15;;;20.50;99.90;;;;;;4203367;28;20032;-61
2023/06/24 02:32:10;;;;;;;4.55;3.17;;;20.50;99.90;;;;;;4188305;28;20048;-58
2023/06/24 02:34:10;;;;;;;3.78;3.05;;;20.60;99.90;;;;;;4186743;28;22814;-59
2023/06/24 02:36:11;;;;;;;7.25;3.13;;;20.60;99.90;;;;;;4191242;28;20086;-59
2023/06/24 02:38:12;;;;;;;3.25;2.63;;;20.60;99.90;;;;;;4193577;28;20044;-59
2023/06/24 02:40:13;;;;;;;3.90;2.97;;;20.50;99.90;;;;;;4202545;28;20044;-60
2023/06/24 02:42:13;;;;;;;4.32;3.13;;;20.50;99.90;;;;;;4193369;28;20105;-59
2023/06/24 02:44:14;;;;;;;6.03;2.92;;;20.50;99.90;;;;;;4192326;28;20033;-59
2023/06/24 02:46:16;;;;;;;5.57;2.92;;;20.50;99.90;;;;;;4185718;28;20043;-59
2023/06/24 02:48:19;;;;;;;4.68;2.90;;;20.50;99.90;;;;;;4192471;28;20032;-59
2023/06/24 02:50:21;;;;;;;4.90;3.05;;;20.40;99.90;;;;;;4190746;28;20514;-59
2023/06/24 02:52:22;;;;;;;5.75;3.03;;;20.40;99.90;;;;;;4190601;28;20037;-60
2023/06/24 02:54:23;;;;;;;4.55;2.88;;;20.40;99.90;;;;;;4189290;28;20032;-58
2023/06/24 02:56:26;;;;;;;4.78;3.30;;;20.40;99.90;;;;;;4189443;28;20056;-59
2023/06/24 02:58:31;;;;;;;;;;;20.40;99.90;;;;;;4195134;28;20551;-59
2023/06/24 03:00:33;;;;;;;4.22;2.78;;;20.40;99.90;;;;;;4191443;28;19917;-59
2023/06/24 03:02:35;;;;;;;13.93;3.53;;;20.30;99.90;;;;;;4196047;28;20443;-59
2023/06/24 03:04:38;;;;;;;9.63;3.20;;;20.30;99.90;;;;;;4192464;28;20417;-62
2023/06/24 03:06:40;;;;;;;8.75;3.92;;;20.30;99.90;;;;;;4193042;28;20036;-59
2023/06/24 03:08:41;;;;;;;5.32;3.80;;;20.30;99.90;;;;;;4195872;28;20028;-58
2023/06/24 03:10:41;;;;;;;10.65;4.10;;;20.30;99.90;;;;;;4193892;28;20427;-58
2023/06/24 03:12:42;;;;;;;4.25;3.20;;;20.30;99.90;;;;;;4194776;28;20033;-59
2023/06/24 03:14:42;;;;;;;5.65;3.63;;;20.30;99.90;;;;;;4195777;28;20507;-59
2023/06/24 03:16:43;;;;;;;5.90;3.10;;;20.30;99.90;;;;;;4194936;28;20077;-59
2023/06/24 03:18:44;;;;;;;5.57;3.30;;;20.30;99.90;;;;;;4200799;28;20025;-59
2023/06/24 03:20:45;;;;;;;4.22;3.35;;;20.30;99.90;;;;;;4195608;28;20077;-59
2023/06/24 03:22:46;;;;;;;8.75;4.32;;;20.30;99.90;;;;;;4203291;28;20032;-59
2023/06/24 03:24:46;;;;;;;5.97;3.58;;;20.30;99.90;;;;;;4197980;28;20039;-59
2023/06/24 03:26:47;;;;;;;5.32;3.75;;;20.30;99.90;;;;;;4197968;28;20125;-59
2023/06/24 03:28:48;;;;;;;5.00;3.88;;;20.30;99.90;;;;;;4186618;28;20028;-59
2023/06/24 03:30:48;;;;;;;4.93;3.53;;;20.30;99.90;;;;;;4197599;28;20053;-59
2023/06/24 03:32:49;;;;;;;5.88;3.28;;;20.30;99.90;;;;;;4180628;28;20025;-59
2023/06/24 03:34:49;;;;;;;5.22;3.47;;;20.30;99.90;;;;;;4187290;28;20147;-58
2023/06/24 03:36:51;;;;;;;4.53;3.60;;;20.20;99.90;;;;;;4186956;28;20028;-59
2023/06/24 03:38:52;;;;;;;5.03;3.75;;;20.20;99.90;;;;;;4189278;28;20036;-59
2023/06/24 03:40:52;;;;;;;4.72;3.80;;;20.10;99.90;;;;;;4190848;28;20033;-59
2023/06/24 03:42:53;;;;;;;5.75;3.80;;;20.10;99.90;;;;;;4183473;28;20056;-59
2023/06/24 03:44:53;;;;;;;6.32;3.67;;;20.10;99.90;;;;;;4195912;28;20074;-59
2023/06/24 03:46:54;;;;;;;4.03;3.25;;;20.10;99.90;;;;;;4186574;28;20455;-60
2023/06/24 03:48:54;;;;;;;4.50;3.45;;;20.00;99.90;;;;;;4196091;28;20407;-60
2023/06/24 03:50:55;;;;;;;5.55;3.80;;;20.00;99.90;;;;;;4192133;28;20067;-59
2023/06/24 03:52:55;;;;;;;5.10;3.45;;;20.10;99.90;;;;;;4183463;28;20037;-59
2023/06/24 03:54:56;;;;;;;5.25;3.65;;;20.10;99.90;;;;;;4192209;28;20052;-58
2023/06/24 03:56:57;;;;;;;6.53;4.10;;;20.10;99.90;;;;;;4188926;28;20108;-59
2023/06/24 03:58:57;;;;;;;5.80;4.03;;;20.10;99.90;;;;;;4192103;28;20036;-59
2023/06/24 04:01:00;;;;;;;5.78;3.30;;;20.10;99.90;;;;;;4189445;28;20325;-59
2023/06/24 04:03:01;;;;;;;;;;;20.10;99.90;;;;;;4187106;28;20043;-59
2023/06/24 04:05:01;;;;;;;4.03;3.20;;;20.10;99.90;;;;;;4191156;28;19908;-59
2023/06/24 04:07:03;;;;;;;5.25;3.45;;;20.10;99.90;;;;;;4189149;28;20121;-59
2023/06/24 04:09:06;;;;;;;4.65;3.88;;;20.10;99.90;;;;;;4189809;28;20040;-59
2023/06/24 04:11:07;;;;;;;5.55;4.32;;;20.10;99.90;;;;;;4190492;28;20746;-60
2023/06/24 04:13:08;;;;;;;5.50;3.85;;;20.10;99.90;;;;;;4189360;28;20547;-59
2023/06/24 04:15:09;;;;;;;6.20;4.80;;;20.10;99.90;;;;;;4181070;28;20041;-60
2023/06/24 04:17:09;;;;;;;8.23;4.88;;;20.20;99.90;;;;;;4179795;28;20037;-59
2023/06/24 04:19:11;;;;;;;5.10;4.30;;;20.20;99.90;;;;;;4184542;28;20480;-59
2023/06/24 04:21:11;;;;;;;6.20;4.75;;;20.20;99.90;;;;;;4185999;28;20037;-59
2023/06/24 04:23:14;;;;;;;7.13;5.40;;;20.20;99.90;;;;;;4190392;28;20035;-59
2023/06/24 04:25:14;;;;;;;6.55;5.65;;;20.30;99.90;;;;;;4184069;28;20380;-59
2023/06/24 04:27:16;;;;;;;6.97;5.00;;;20.30;99.90;;;;;;4191216;28;20032;-59
2023/06/24 04:29:16;;;;;;;5.20;4.63;;;20.30;99.90;;;;;;4192632;28;20151;-59
2023/06/24 04:31:17;;;;;;;7.15;4.30;;;20.30;99.90;;;;;;4184462;28;20048;-59
2023/06/24 04:33:18;;;;;;;4.57;4.07;;;20.40;99.90;;;;;;4190432;28;20062;-59
2023/06/24 04:35:18;;;;;;;6.72;4.53;;;20.40;99.90;;;;;;4191901;28;20052;-59
2023/06/24 04:37:19;;;;;;;5.78;4.38;;;20.40;99.90;;;;;;4191426;28;20056;-59
2023/06/24 04:39:20;;;;;;;6.32;4.78;;;20.40;99.90;;;;;;4207636;28;20237;-59
2023/06/24 04:41:20;;;;;;;9.30;5.55;;;20.40;99.90;;;;;;4202499;28;20029;-59
2023/06/24 04:43:21;;;;;;;7.13;5.15;;;20.40;99.90;;;;;;4203860;28;20115;-59
2023/06/24 04:45:22;;;;;;;9.93;6.57;;;20.30;99.90;;;;;;4206357;28;20037;-59
2023/06/24 04:47:22;;;;;;;7.88;6.10;;;20.30;99.90;;;;;;4179143;28;20037;-59
2023/06/24 04:49:23;;;;;;;9.05;6.72;;;20.30;99.90;;;;;;4207985;28;20024;-59
2023/06/24 04:51:23;;;;;;;7.22;5.85;;;20.40;99.90;;;;;;4199309;28;20489;-59
2023/06/24 04:53:24;;;;;;;7.15;5.63;;;20.40;99.90;;;;;;4200909;28;20039;-61
2023/06/24 04:55:25;;;;;;;10.15;6.32;;;20.40;99.90;;;;;;4207744;28;20032;-60
2023/06/24 04:57:30;;;;;;;9.40;7.07;;;20.30;99.90;;;;;;4196870;28;20044;-59
2023/06/24 04:59:31;;;;;;;11.43;7.22;;;20.40;99.90;;;;;;4193377;28;20407;-59
2023/06/24 05:01:32;;;;;;;8.75;6.45;;;20.30;99.90;;;;;;4182113;28;20032;-59
2023/06/24 05:03:32;;;;;;;10.20;5.80;;;20.40;99.90;;;;;;4188980;28;20514;-59
2023/06/24 05:05:33;;;;;;;10.63;6.82;;;20.40;99.90;;;;;;4186328;28;20111;-59
2023/06/24 05:07:33;;;;;;;10.15;5.85;;;20.40;99.90;;;;;;4188432;28;20039;-59
2023/06/24 05:09:37;;;;;;;9.75;6.60;;;20.40;99.90;;;;;;4188000;28;20037;-59
2023/06/24 05:11:38;;;;;;;10.00;6.93;;;20.40;99.90;;;;;;4181114;28;20144;-59
2023/06/24 05:13:39;;;;;;;9.10;6.25;;;20.50;99.90;;;;;;4183683;28;20075;-59
2023/06/24 05:15:40;;;;;;;8.97;6.30;;;20.50;99.90;;;;;;4188430;28;20197;-60
2023/06/24 05:17:42;;;;;;;8.25;6.53;;;20.60;99.90;;;;;;4187288;28;20036;-59
2023/06/24 05:19:42;;;;;;;9.45;6.70;;;20.60;99.90;;;;;;4178961;28;20080;-59
2023/06/24 05:21:44;;;;;;;8.55;6.50;;;20.60;99.90;;;;;;4202410;28;20123;-59
2023/06/24 05:23:44;;;;;;;7.97;6.30;;;20.70;99.90;;;;;;4176293;28;20083;-59
2023/06/24 05:25:45;;;;;;;10.50;6.80;;;20.70;99.90;;;;;;4185653;28;20466;-59
2023/06/24 05:27:45;;;;;;;9.38;7.22;;;20.70;99.90;;;;;;4186727;28;20349;-59
2023/06/24 05:29:46;;;;;;;8.68;6.35;;;20.80;99.90;;;;;;4185436;28;20029;-59
2023/06/24 05:31:47;;;;;;;8.88;6.93;;;20.80;99.90;;;;;;4189213;28;20031;-59
2023/06/24 05:33:48;;;;;;;8.20;6.38;;;20.80;99.90;;;;;;4198020;28;20047;-59
2023/06/24 05:35:49;;;;;;;11.70;7.28;;;20.80;99.90;;;;;;4194810;28;20037;-59
2023/06/24 05:37:49;;;;;;;13.50;7.68;;;20.90;99.90;;;;;;4180646;28;20067;-59
2023/06/24 05:39:51;;;;;;;8.63;6.72;;;20.90;99.90;;;;;;4165569;28;20052;-59
2023/06/24 05:41:52;;;;;;;10.65;6.80;;;20.90;99.90;;;;;;4158734;28;20061;-59
2023/06/24 05:44:03;;;;;;;14.82;7.72;;;20.90;99.90;;;;;;4178826;28;20442;-59
2023/06/24 05:46:04;;;;;;;8.80;7.13;;;20.90;99.90;;;;;;4187413;28;20071;-59
2023/06/24 05:48:05;;;;;;;11.63;8.15;;;21.00;99.90;;;;;;4156569;28;20053;-59
2023/06/24 05:50:06;;;;;;;10.98;7.78;;;21.20;99.90;;;;;;4179287;28;20422;-60
2023/06/24 05:52:06;;;;;;;8.18;6.78;;;21.50;99.90;;;;;;4168471;28;20119;-59
2023/06/24 05:54:10;;;;;;;10.27;7.35;;;21.80;99.90;;;;;;4184057;28;20391;-61
2023/06/24 05:56:10;;;;;;;12.45;8.85;;;22.20;99.90;;;;;;4160747;28;20380;-60
2023/06/24 05:58:11;;;;;;;10.75;7.65;;;22.50;99.90;;;;;;4158989;28;20042;-59
2023/06/24 06:00:12;;;;;;;11.02;7.63;;;22.90;99.90;;;;;;4168243;28;20087;-60
2023/06/24 06:02:13;;;;;;;8.85;7.05;;;23.30;99.90;;;;;;4174883;28;20128;-60
2023/06/24 06:04:13;;;;;;;10.35;6.82;;;23.60;99.90;;;;;;4187239;28;20509;-60
2023/06/24 06:06:14;;;;;;;9.90;7.70;;;23.90;99.90;;;;;;4183955;28;20043;-60
2023/06/24 06:08:14;;;;;;;8.23;6.63;;;24.20;99.90;;;;;;4191777;28;20448;-60
2023/06/24 06:10:17;;;;;;;9.93;6.75;;;24.50;99.90;;;;;;4183801;28;20028;-60
2023/06/24 06:12:17;;;;;;;;;;;24.70;99.90;;;;;;4193685;28;20056;-60
2023/06/24 06:14:18;;;;;;;8.98;7.18;;;24.90;99.90;;;;;;4193128;28;19916;-61
2023/06/24 06:16:18;;;;;;;7.80;6.05;;;25.20;99.90;;;;;;4185873;28;20495;-60
2023/06/24 06:18:19;;;;;;;8.13;6.10;;;25.40;99.90;;;;;;4191521;28;20037;-60
2023/06/24 06:20:20;;;;;;;10.13;7.07;;;25.70;99.90;;;;;;4180643;28;20047;-60
2023/06/24 06:22:20;;;;;;;6.40;5.75;;;26.00;99.90;;;;;;4181428;28;20064;-60
2023/06/24 06:24:21;;;;;;;9.55;6.70;;;26.30;99.90;;;;;;4189376;28;20528;-60
2023/06/24 06:26:21;;;;;;;8.70;6.78;;;26.40;99.90;;;;;;4190968;28;20036;-60
2023/06/24 06:28:22;;;;;;;8.60;6.43;;;26.50;99.90;;;;;;4187249;28;20033;-61
2023/06/24 06:30:22;;;;;;;8.38;6.65;;;26.50;99.90;;;;;;4175560;28;20037;-60
2023/06/24 06:32:23;;;;;;;7.47;5.97;;;26.60;99.90;;;;;;4179948;28;20033;-60
2023/06/24 06:34:24;;;;;;;9.50;6.45;;;26.70;99.90;;;;;;4180617;28;20120;-61
2023/06/24 06:36:25;;;;;;;7.47;5.85;;;26.80;99.90;;;;;;4187823;28;20052;-61
2023/06/24 06:38:26;;;;;;;8.95;6.97;;;26.80;99.90;;;;;;4202680;28;20036;-61
2023/06/24 06:40:28;;;;;;;5.75;5.10;;;26.80;99.90;;;;;;4204883;28;20406;-61
2023/06/24 06:42:29;;;;;;;6.90;4.90;;;26.90;99.90;;;;;;4211492;28;20035;-61
2023/06/24 06:44:30;;;;;;;22.73;6.20;;;26.90;99.90;;;;;;4209157;28;20047;-60
2023/06/24 06:46:30;;;;;;;6.25;5.25;;;26.90;99.90;;;;;;4183009;28;20029;-61
2023/06/24 06:48:31;;;;;;;7.00;6.03;;;26.90;99.90;;;;;;4206655;28;20035;-61
2023/06/24 06:50:32;;;;;;;8.23;5.47;;;26.90;99.90;;;;;;4212043;28;20320;-64
2023/06/24 06:52:32;;;;;;;8.65;7.07;;;26.90;99.90;;;;;;4210895;28;20483;-64
2023/06/24 06:54:33;;;;;;;7.32;5.28;;;26.90;99.90;;;;;;4212003;28;20028;-64
2023/06/24 06:56:33;;;;;;;6.22;5.18;;;26.80;99.90;;;;;;4204589;28;20036;-64
2023/06/24 06:58:34;;;;;;;7.72;5.03;;;26.70;99.90;;;;;;4181049;28;20065;-63
2023/06/24 07:00:34;;;;;;;8.00;6.00;;;26.70;99.90;;;;;;4177317;28;20036;-63
2023/06/24 07:02:35;;;;;;;7.50;5.65;;;26.70;99.90;;;;;;4189898;28;20037;-63
2023/06/24 07:04:35;;;;;;;7.53;5.88;;;26.70;99.90;;;;;;4188510;28;20040;-63
2023/06/24 07:06:36;;;;;;;8.18;5.65;;;26.60;99.90;;;;;;4194305;28;20502;-63
2023/06/24 07:08:37;;;;;;;7.15;5.70;;;26.60;99.90;;;;;;4208650;28;20051;-63
2023/06/24 07:10:37;;;;;;;6.07;4.60;;;26.50;99.90;;;;;;4193788;28;20029;-66
2023/06/24 07:12:39;;;;;;;6.60;4.55;;;26.50;99.90;;;;;;4212276;28;20460;-64
2023/06/24 07:14:39;;;;;;;7.53;5.25;;;26.50;99.90;;;;;;4210042;28;20047;-63
2023/06/24 07:16:40;;;;;;;8.10;5.03;;;26.40;99.10;;;;;;4203794;28;20162;-63
2023/06/24 07:18:40;;;;;;;6.00;4.90;;;26.40;99.90;;;;;;4209688;28;20043;-65
2023/06/24 07:20:41;;;;;;;7.28;5.57;;;26.40;99.90;;;;;;4206776;28;20372;-64
2023/06/24 07:22:42;;;;;;;5.72;4.43;;;26.30;98.00;;;;;;4193680;28;20037;-63
2023/06/24 07:24:42;;;;;;;5.30;3.95;;;26.30;99.30;;;;;;4190516;28;20116;-63
2023/06/24 07:26:43;;;;;;;5.35;4.22;;;26.30;98.80;;;;;;4187893;28;20062;-64
2023/06/24 07:28:43;;;;;;;4.75;4.03;;;26.30;99.90;;;;;;4179740;28;20037;-63
2023/06/24 07:30:45;;;;;;;5.63;3.83;;;26.30;99.80;;;;;;4182626;28;20479;-63
2023/06/24 07:32:45;;;;;;;6.68;4.35;;;26.30;99.10;;;;;;4192767;28;20043;-63
2023/06/24 07:34:46;;;;;;;6.30;4.82;;;26.30;99.80;;;;;;4195767;28;20029;-63
2023/06/24 07:36:46;;;;;;;5.30;3.72;;;26.40;99.90;;;;;;4191055;28;20037;-63
2023/06/24 07:38:47;;;;;;;6.72;3.60;;;26.50;99.90;;;;;;4198261;28;20162;-63
2023/06/24 07:40:48;;;;;;;4.70;3.72;;;26.60;99.10;;;;;;4183561;28;20118;-62
2023/06/24 07:42:48;;;;;;;4.10;3.30;;;26.50;99.30;;;;;;4191978;28;20399;-63
2023/06/24 07:44:49;;;;;;;4.32;3.63;;;26.60;99.00;;;;;;4194557;28;20027;-61
2023/06/24 07:46:51;;;;;;;5.30;3.50;;;26.70;99.60;;;;;;4185828;28;20103;-62
2023/06/24 07:48:51;;;;;;;7.00;4.60;;;26.80;99.80;;;;;;4212216;28;20553;-62
2023/06/24 07:50:52;;;;;;;6.80;4.50;;;26.90;99.20;;;;;;4174495;28;20260;-62
2023/06/24 07:52:52;;;;;;;4.30;2.92;;;26.90;97.30;;;;;;4199775;28;20119;-62
2023/06/24 07:54:53;;;;;;;4.15;3.40;;;26.90;97.70;;;;;;4185538;28;20500;-62
2023/06/24 07:56:53;;;;;;;4.07;3.15;;;26.90;97.10;;;;;;4204750;28;20290;-62
2023/06/24 07:58:55;;;;;;;5.40;3.50;;;26.90;96.90;;;;;;4205971;28;20024;-62
2023/06/24 08:00:55;;;;;;;4.15;3.22;;;26.90;96.80;;;;;;4201078;28;20028;-62
2023/06/24 08:02:58;;;;;;;3.25;2.72;;;27.00;96.40;;;;;;4206177;28;20028;-62
2023/06/24 08:04:58;;;;;;;3.28;2.70;;;27.00;94.90;;;;;;4187908;28;20576;-63
2023/06/24 08:06:59;;;;;;;3.15;2.35;;;27.10;95.70;;;;;;4200254;28;20041;-62
2023/06/24 08:08:59;;;;;;;7.55;3.10;;;27.10;94.60;;;;;;4202921;28;20044;-62
2023/06/24 08:11:00;;;;;;;4.50;3.58;;;27.10;94.70;;;;;;4188037;28;20032;-62
2023/06/24 08:13:01;;;;;;;3.78;3.15;;;27.10;94.70;;;;;;4184538;28;20025;-62
2023/06/24 08:15:01;;;;;;;4.93;3.60;;;27.10;94.10;;;;;;4191278;28;20032;-62
2023/06/24 08:17:02;;;;;;;4.70;3.10;;;27.10;93.90;;;;;;4184529;28;20476;-62
2023/06/24 08:19:03;;;;;;;4.40;3.45;;;27.20;95.50;;;;;;4189731;28;20025;-68
2023/06/24 08:21:03;;;;;;;4.50;3.50;;;27.30;94.80;;;;;;4186723;28;20021;-64
2023/06/24 08:23:04;;;;;;;4.85;3.55;;;27.20;95.00;;;;;;4186657;28;20115;-63
2023/06/24 08:25:05;;;;;;;5.47;3.38;;;27.20;93.80;;;;;;4193215;28;20020;-63
2023/06/24 08:27:05;;;;;;;6.20;4.15;;;27.30;94.60;;;;;;4194291;28;20032;-62
2023/06/24 08:29:07;;;;;;;5.93;3.47;;;27.20;93.60;;;;;;4195589;28;20420;-62
2023/06/24 08:31:07;;;;;;;4.40;3.22;;;27.30;94.80;;;;;;4186841;28;20412;-62
2023/06/24 08:33:08;;;;;;;5.10;2.92;;;27.30;96.90;;;;;;4188150;28;20029;-63
2023/06/24 08:35:09;;;;;;;5.20;3.50;;;27.50;97.40;;;;;;4185746;28;20037;-63
2023/06/24 08:37:10;;;;;;;6.07;3.97;;;27.50;97.00;;;;;;4192183;28;20515;-62
2023/06/24 08:39:10;;;;;;;6.13;4.18;;;27.50;95.90;;;;;;4195021;28;20068;-64
2023/06/24 08:41:11;;;;;;;6.07;3.70;;;27.50;95.80;;;;;;4194370;28;20562;-63
2023/06/24 08:43:11;;;;;;;4.88;3.72;;;27.60;95.30;;;;;;4185671;28;20048;-62
2023/06/24 08:45:12;;;;;;;7.28;5.20;;;27.60;95.60;;;;;;4172825;28;20080;-62
2023/06/24 08:47:14;;;;;;;6.90;4.15;;;27.60;96.20;;;;;;4198245;28;20035;-63
2023/06/24 08:49:23;;;;;;;8.70;6.03;;;27.60;94.50;;;;;;4200936;28;20028;-62
2023/06/24 08:51:27;;;;;;;6.15;4.47;;;27.60;95.40;;;;;;4200130;28;20507;-62
2023/06/24 08:53:28;;;;;;;7.22;4.57;;;27.60;95.30;;;;;;4201515;28;20024;-62
2023/06/24 08:55:32;;;;;;;6.68;4.50;;;27.60;94.90;;;;;;4203237;28;20420;-62
2023/06/24 08:57:33;;;;;;;7.15;5.00;;;27.60;94.80;;;;;;4200757;28;20036;-63
2023/06/24 08:59:34;;;;;;;8.52;5.07;;;27.60;95.40;;;;;;4188300;28;20132;-66
2023/06/24 09:01:35;;;;;;;8.57;5.60;;;27.50;95.10;;;;;;4185838;28;20032;-63
2023/06/24 09:03:36;;;;;;;7.43;4.80;;;27.60;95.50;;;;;;4186286;28;20457;-62
2023/06/24 09:05:36;;;;;;;7.22;4.70;;;27.60;94.70;;;;;;4179650;28;20048;-63
2023/06/24 09:07:37;;;;;;;8.30;5.30;;;27.60;95.30;;;;;;4191679;28;20553;-62
2023/06/24 09:09:44;;;;;;;6.65;4.45;;;27.50;94.80;;;;;;4193222;28;20025;-62
2023/06/24 09:11:55;;;;;;;6.53;4.40;;;27.50;94.30;;;;;;4198800;28;20479;-62
2023/06/24 09:14:00;;;;;;;7.30;3.83;;;27.60;93.90;;;;;;4200678;28;20036;-63
2023/06/24 09:16:13;;;;;;;7.20;5.32;;;27.50;94.60;;;;;;4203213;28;20123;-62
2023/06/24 09:18:17;;;;;;;4.70;3.63;;;27.60;95.30;;;;;;4184741;28;20032;-63
2023/06/24 09:20:21;;;;;;;5.00;3.80;;;27.60;96.10;;;;;;4169813;28;20060;-63
2023/06/24 09:22:22;;;;;;;5.30;3.53;;;27.70;95.10;;;;;;4207726;28;20028;-62
2023/06/24 09:24:27;;;;;;;5.18;3.55;;;27.70;95.20;;;;;;4205970;28;20093;-62
2023/06/24 09:26:29;;;;;;;5.40;3.50;;;27.70;92.20;;;;;;4208372;28;20029;-62
2023/06/24 09:28:30;;;;;;;7.78;3.97;;;27.70;91.70;;;;;;4178204;28;20056;-62
2023/06/24 09:30:30;;;;;;;4.22;3.00;;;27.70;92.60;;;;;;4185144;28;20403;-62
2023/06/24 09:32:31;;;;;;;5.85;3.90;;;27.70;91.80;;;;;;4190127;28;20031;-62
2023/06/24 09:34:33;;;;;;;5.10;3.42;;;27.70;91.30;;;;;;4208814;28;20028;-62
2023/06/24 09:36:33;;;;;;;4.60;3.60;;;27.70;92.20;;;;;;4206055;28;20032;-63
2023/06/24 09:38:36;;;;;;;7.43;4.75;;;27.70;90.90;;;;;;4184564;28;20094;-68
2023/06/24 09:40:37;;;;;;;5.07;3.50;;;27.70;91.00;;;;;;4177611;28;20041;-63
2023/06/24 09:42:54;;;;;;;5.03;3.65;;;27.70;91.70;;;;;;4188900;28;20365;-62
2023/06/24 09:44:55;;;;;;;4.95;3.15;;;27.70;92.60;;;;;;4185868;28;20060;-62
2023/06/24 09:46:56;;;;;;;4.30;3.30;;;27.80;92.00;;;;;;4120633;28;20036;-63
2023/06/24 09:49:01;;;;;;;4.13;3.35;;;27.90;90.30;;;;;;4093346;28;20255;-62
2023/06/24 09:51:08;;;;;;;4.15;2.60;;;27.90;90.00;;;;;;4103294;28;20037;-62
2023/06/24 09:53:12;;;;;;;3.75;2.90;;;28.00;91.50;;;;;;4155187;28;20036;-64
2023/06/24 09:55:15;;;;;;;5.43;3.47;;;28.00;91.50;;;;;;4182881;28;20033;-62
2023/06/24 09:57:20;;;;;;;4.38;3.13;;;28.00;90.70;;;;;;4181626;28;20036;-63
2023/06/24 09:59:24;;;;;;;4.57;3.42;;;28.10;90.10;;;;;;4192370;28;20091;-62
2023/06/24 10:01:24;;;;;;;6.82;3.08;;;28.10;91.00;;;;;;4188348;28;20036;-63
2023/06/24 10:03:25;;;;;;;4.22;3.13;;;28.20;92.50;;;;;;4191437;28;20039;-63
2023/06/24 10:05:26;;;;;;;5.38;3.53;;;28.30;93.00;;;;;;4190595;28;20024;-63
2023/06/24 10:07:28;;;;;;;6.13;3.97;;;28.30;91.50;;;;;;4187398;28;20062;-63
2023/06/24 10:09:28;;;;;;;5.30;3.67;;;28.30;92.20;;;;;;4191056;28;20047;-62
2023/06/24 10:11:30;;;;;;;3.97;3.20;;;28.30;91.10;;;;;;4195087;28;20129;-63
2023/06/24 10:13:30;;;;;;;3.53;2.97;;;28.40;91.20;;;;;;4194978;28;20036;-63
2023/06/24 10:15:31;;;;;;;3.70;3.00;;;28.40;91.40;;;;;;4192367;28;20021;-63
2023/06/24 10:17:32;;;;;;;3.58;2.42;;;28.40;89.20;;;;;;4188424;28;20028;-63
2023/06/24 10:19:40;;;;;;;4.15;3.30;;;28.50;90.10;;;;;;4181377;28;20040;-63
2023/06/24 10:22:14;;;;;;;4.85;3.83;;;28.60;92.60;;;;;;4185132;28;20067;-63
2023/06/24 10:24:28;;;;;;;7.38;4.00;;;28.70;92.80;;;;;;4158647;28;20067;-63
2023/06/24 10:26:35;;;;;;;5.43;3.55;;;28.70;90.10;;;;;;4183326;28;20549;-63
2023/06/24 10:29:05;;;;;;;5.35;3.85;;;28.70;92.30;;;;;;4192441;28;20041;-63
2023/06/24 10:31:05;;;;;;;4.47;3.60;;;28.80;91.10;;;;;;4177091;28;20053;-63
2023/06/24 10:33:10;;;;;;;5.13;3.22;;;28.80;90.40;;;;;;4196439;28;20083;-63
2023/06/24 10:35:25;;;;;;;4.28;3.30;;;28.80;91.20;;;;;;4196073;28;20104;-64
2023/06/24 10:37:30;;;;;;;3.30;2.63;;;28.80;87.40;;;;;;4186221;28;20037;-63